CheckWX is a tool to help pilots better visualize weather data.  It is not intended as a substitute for an official pre-flight weather briefing.

04:06:54 UTC

FWCL METAR
Chileka International Airport
Blantyre, Malawi
Current

13 hours ago

FWCL 251500Z 20008KT 9999 FEW020 21/15 Q1022 NOSIG
Observed
May-25 @ 15:00 UTC
Wind
  • 200° at 8 KTS
Visibility
10,000+ meters
Flight Rules
VFR
Cloud Levels
  • Few at 2,000' AGL
Temperature
21°C / 70°F
Dewpoint
15°C / 59°F
Humidity
69%
Altimeter
30.18" Hg
Pressure
1021.92 hPa
Previous

14 hours ago

FWCL 251400Z 17010KT 9999 FEW022 22/16 Q1021 NOSIG
Observed
May-25 @ 14:00 UTC
Wind
  • 170° at 10 KTS
Visibility
10,000+ meters
Flight Rules
VFR
Cloud Levels
  • Few at 2,200' AGL
Temperature
22°C / 72°F
Dewpoint
16°C / 61°F
Humidity
69%
Altimeter
30.15" Hg
Pressure
1020.92 hPa
Previous

15 hours ago

FWCL 251300Z 21013KT 9999 FEW025 23/16 Q1021 NOSIG
Observed
May-25 @ 13:00 UTC
Wind
  • 210° at 13 KTS
Visibility
10,000+ meters
Flight Rules
VFR
Cloud Levels
  • Few at 2,500' AGL
Temperature
23°C / 73°F
Dewpoint
16°C / 61°F
Humidity
65%
Altimeter
30.15" Hg
Pressure
1020.92 hPa